Time;durP1;ratioP1;P1;durP2;ratioP2;P2;SDS_P1;SDS_P2;PMS_P1;PMS_P2;Temp;Humidity;BMP_temperature;BMP_pressure;BME280_temperature;BME280_humidity;BME280_pressure;Samples;Min_cycle;Max_cycle;Signal;HPM_P1;HPM_P2
2022/03/06 00:01:13;;;;;;;15.13;10.93;;;3.50;79.20;;;;;;5034308;28;20751;-89
2022/03/06 00:03:39;;;;;;;15.10;11.43;;;3.40;79.70;;;;;;5034360;28;20182;-88
2022/03/06 00:06:05;;;;;;;17.27;11.73;;;3.40;79.90;;;;;;5016790;28;20640;-93
2022/03/06 00:08:31;;;;;;;16.17;11.40;;;3.60;79.70;;;;;;5017138;28;20179;-89
2022/03/06 00:10:57;;;;;;;13.63;11.37;;;3.60;79.60;;;;;;5016723;28;20181;-92
2022/03/06 00:13:23;;;;;;;13.93;11.20;;;3.50;79.40;;;;;;5033673;28;20520;-91
2022/03/06 00:15:50;;;;;;;16.60;11.97;;;3.50;79.70;;;;;;5033745;28;20177;-92
2022/03/06 00:18:16;;;;;;;15.50;11.77;;;3.50;78.70;;;;;;5034615;28;20175;-93
2022/03/06 00:20:42;;;;;;;14.43;11.33;;;3.50;78.80;;;;;;5016632;28;20175;-90
2022/03/06 00:23:09;;;;;;;16.33;11.67;;;3.50;78.60;;;;;;5018211;28;20208;-89
2022/03/06 00:25:35;;;;;;;15.83;11.43;;;3.40;78.90;;;;;;5018347;28;20605;-92
2022/03/06 00:28:01;;;;;;;16.97;11.67;;;3.30;79.00;;;;;;5019559;28;20237;-89
2022/03/06 00:30:27;;;;;;;16.13;11.73;;;3.30;79.40;;;;;;5025269;28;20180;-86
2022/03/06 00:32:52;;;;;;;15.53;11.37;;;3.40;79.60;;;;;;5024295;28;20239;-85
2022/03/06 00:35:18;;;;;;;13.60;11.40;;;3.40;79.20;;;;;;5047196;28;20192;-86
2022/03/06 00:37:44;;;;;;;14.63;12.00;;;3.40;79.20;;;;;;5021847;28;20175;-91
2022/03/06 00:40:10;;;;;;;14.63;11.30;;;3.40;79.50;;;;;;5035681;28;20208;-91
2022/03/06 00:42:36;;;;;;;15.57;11.20;;;3.30;79.40;;;;;;5016832;28;20273;-92
2022/03/06 00:45:03;;;;;;;15.87;10.97;;;3.30;79.60;;;;;;5018199;28;20200;-94
2022/03/06 00:47:29;;;;;;;13.27;10.77;;;3.30;79.60;;;;;;5034519;28;20180;-89
2022/03/06 00:49:55;;;;;;;14.20;10.77;;;3.20;79.70;;;;;;5042355;28;20177;-85
2022/03/06 00:52:21;;;;;;;13.17;10.37;;;3.20;79.70;;;;;;5043103;28;20211;-85
2022/03/06 00:54:47;;;;;;;16.63;11.00;;;3.20;80.00;;;;;;5042944;28;20587;-86
2022/03/06 00:57:13;;;;;;;14.77;11.20;;;3.00;80.40;;;;;;5024882;28;20176;-85
2022/03/06 00:59:38;;;;;;;13.70;11.20;;;3.00;80.30;;;;;;5042192;28;20176;-88
2022/03/06 01:02:06;;;;;;;14.63;11.23;;;3.10;80.20;;;;;;5048800;28;20207;-92
2022/03/06 01:04:33;;;;;;;18.57;12.03;;;3.00;80.30;;;;;;5022575;28;20191;-86
2022/03/06 01:06:59;;;;;;;15.50;11.73;;;3.00;80.30;;;;;;5039745;28;20180;-86
2022/03/06 01:09:25;;;;;;;17.03;11.87;;;3.00;80.30;;;;;;5018425;28;20177;-85
2022/03/06 01:11:51;;;;;;;16.20;11.67;;;2.90;80.70;;;;;;5021187;28;20600;-91
2022/03/06 01:14:17;;;;;;;14.33;11.07;;;2.90;80.90;;;;;;5023410;28;20180;-88
2022/03/06 01:16:43;;;;;;;14.93;11.27;;;3.00;81.90;;;;;;5033995;28;20174;-93
2022/03/06 01:19:10;;;;;;;16.47;12.17;;;3.00;82.20;;;;;;5016002;28;20181;-87
2022/03/06 01:21:35;;;;;;;15.67;11.70;;;2.90;82.70;;;;;;5028556;28;20201;-85
2022/03/06 01:24:01;;;;;;;14.43;11.67;;;3.00;83.00;;;;;;5020116;28;20167;-87
2022/03/06 01:26:27;;;;;;;13.33;11.17;;;3.00;83.10;;;;;;5039741;28;20188;-87
2022/03/06 01:28:53;;;;;;;17.10;12.40;;;3.00;83.30;;;;;;5027238;28;20178;-86
2022/03/06 01:31:18;;;;;;;15.27;12.47;;;3.00;83.50;;;;;;5034800;28;20636;-93
2022/03/06 01:33:44;;;;;;;17.07;11.90;;;2.90;83.80;;;;;;5021279;28;20208;-90
2022/03/06 01:36:10;;;;;;;17.73;12.97;;;2.90;84.30;;;;;;5022797;28;20547;-92
2022/03/06 01:38:36;;;;;;;16.77;12.20;;;2.80;84.40;;;;;;5022108;28;20587;-90
2022/03/06 01:41:02;;;;;;;16.30;12.57;;;2.80;84.40;;;;;;5022503;28;20169;-91
2022/03/06 01:43:28;;;;;;;16.20;12.13;;;2.80;84.70;;;;;;5027599;28;20323;-88
2022/03/06 01:45:53;;;;;;;17.63;12.80;;;2.80;84.60;;;;;;5008329;28;20213;-90
2022/03/06 01:48:19;;;;;;;17.50;12.63;;;2.80;84.20;;;;;;5020395;28;20242;-91
2022/03/06 01:50:45;;;;;;;15.53;12.03;;;2.80;84.20;;;;;;5020062;28;20176;-93
2022/03/06 01:53:12;;;;;;;16.00;12.30;;;2.80;84.40;;;;;;5020236;28;20173;-92
2022/03/06 01:55:38;;;;;;;17.00;12.53;;;2.90;84.20;;;;;;5002681;28;20239;-93
2022/03/06 01:58:08;;;;;;;16.03;12.37;;;3.00;84.20;;;;;;5020449;28;20173;-91
2022/03/06 02:00:38;;;;;;;15.33;12.30;;;3.00;84.60;;;;;;5016862;28;20173;-92
2022/03/06 02:03:04;;;;;;;16.80;12.53;;;3.00;84.40;;;;;;5016825;28;20209;-91
2022/03/06 02:05:30;;;;;;;15.77;11.83;;;2.90;83.90;;;;;;5017188;28;20174;-88
2022/03/06 02:07:56;;;;;;;17.93;11.70;;;2.90;83.80;;;;;;5016971;28;20230;-89
2022/03/06 02:10:22;;;;;;;15.17;10.83;;;3.00;83.50;;;;;;5016957;28;20300;-88
2022/03/06 02:12:48;;;;;;;15.17;11.00;;;3.00;82.80;;;;;;5016738;28;20214;-86
2022/03/06 02:15:16;;;;;;;13.50;10.33;;;2.90;82.50;;;;;;5017441;28;20173;-90
2022/03/06 02:17:43;;;;;;;13.53;10.27;;;3.00;82.50;;;;;;5016540;28;20692;-89
2022/03/06 02:20:14;;;;;;;13.87;10.57;;;3.10;82.30;;;;;;5016602;28;20191;-87
2022/03/06 02:22:45;;;;;;;16.13;10.57;;;3.00;82.00;;;;;;5016452;28;20251;-89
2022/03/06 02:25:17;;;;;;;13.77;10.30;;;3.00;82.00;;;;;;5016375;28;20188;-86
2022/03/06 02:27:43;;;;;;;13.80;10.40;;;3.00;81.80;;;;;;5001337;28;20172;-86
2022/03/06 02:30:21;;;;;;;13.20;10.37;;;3.00;81.80;;;;;;5019153;28;20184;-86
2022/03/06 02:32:49;;;;;;;12.13;9.70;;;3.00;81.80;;;;;;5020574;28;20313;-89
2022/03/06 02:35:15;;;;;;;14.37;10.60;;;3.00;81.60;;;;;;5001236;28;20173;-85
2022/03/06 02:37:42;;;;;;;13.80;10.37;;;2.90;81.70;;;;;;5019471;28;20186;-86
2022/03/06 02:40:11;;;;;;;14.47;10.93;;;2.90;81.50;;;;;;5036331;28;20214;-86
2022/03/06 02:42:42;;;;;;;13.07;10.47;;;2.90;81.60;;;;;;5035494;28;20342;-93
2022/03/06 02:45:11;;;;;;;13.67;10.63;;;2.90;81.80;;;;;;5018552;28;20243;-92
2022/03/06 02:47:37;;;;;;;14.97;10.93;;;2.90;81.60;;;;;;5036875;28;20172;-91
2022/03/06 02:50:05;;;;;;;13.87;10.33;;;2.90;81.60;;;;;;5018872;28;20643;-88
2022/03/06 02:52:30;;;;;;;13.23;10.47;;;2.90;81.60;;;;;;5036181;28;20171;-91
2022/03/06 02:54:56;;;;;;;12.00;10.13;;;2.90;81.70;;;;;;5035929;28;20172;-90
2022/03/06 02:57:22;;;;;;;12.43;10.90;;;2.90;81.60;;;;;;5035747;28;20172;-89
2022/03/06 02:59:51;;;;;;;14.23;10.50;;;2.80;81.70;;;;;;5018642;28;20173;-92
2022/03/06 03:02:17;;;;;;;14.23;10.63;;;2.80;82.00;;;;;;5036836;28;20208;-91
2022/03/06 03:04:43;;;;;;;14.40;11.13;;;2.80;82.20;;;;;;5040434;28;20705;-89
2022/03/06 03:07:08;;;;;;;14.10;10.03;;;2.90;81.50;;;;;;5042095;28;20188;-86
2022/03/06 03:09:35;;;;;;;14.30;10.13;;;2.90;81.30;;;;;;5055148;28;20169;-86
2022/03/06 03:12:02;;;;;;;13.97;10.80;;;2.90;81.60;;;;;;5031241;28;20186;-84
2022/03/06 03:14:31;;;;;;;13.17;10.40;;;2.90;81.40;;;;;;5033386;28;20204;-85
2022/03/06 03:16:58;;;;;;;14.57;10.20;;;2.90;81.40;;;;;;5023453;28;20188;-88
2022/03/06 03:19:24;;;;;;;13.57;9.30;;;2.90;81.40;;;;;;5035782;28;20168;-91
2022/03/06 03:21:50;;;;;;;12.27;9.87;;;2.90;81.50;;;;;;5017830;28;20254;-86
2022/03/06 03:24:16;;;;;;;10.53;9.03;;;3.00;81.50;;;;;;5035388;28;20568;-93
2022/03/06 03:26:42;;;;;;;11.80;9.90;;;3.00;81.40;;;;;;5035219;28;20177;-90
2022/03/06 03:29:08;;;;;;;13.53;10.33;;;3.00;81.00;;;;;;5035087;28;20512;-92
2022/03/06 03:31:33;;;;;;;13.23;10.30;;;2.90;80.80;;;;;;5034974;28;20658;-88
2022/03/06 03:33:59;;;;;;;15.07;11.13;;;2.90;80.90;;;;;;5017431;28;20190;-88
2022/03/06 03:36:25;;;;;;;13.30;11.03;;;2.90;81.10;;;;;;5017174;28;20183;-86
2022/03/06 03:38:51;;;;;;;11.57;9.70;;;2.90;80.70;;;;;;5016993;28;20638;-89
2022/03/06 03:41:17;;;;;;;13.53;10.40;;;2.90;80.60;;;;;;5035132;28;20249;-88
2022/03/06 03:43:43;;;;;;;12.30;10.30;;;2.90;79.10;;;;;;5034399;28;20266;-86
2022/03/06 03:46:09;;;;;;;12.83;9.83;;;2.80;78.50;;;;;;5016629;28;20342;-87
2022/03/06 03:48:35;;;;;;;13.93;10.43;;;2.80;78.70;;;;;;5016518;28;20263;-85
2022/03/06 03:51:01;;;;;;;13.80;9.87;;;2.90;78.20;;;;;;5016384;28;20267;-87
2022/03/06 03:53:26;;;;;;;12.70;9.93;;;3.00;77.90;;;;;;5016643;28;20204;-87
2022/03/06 03:55:53;;;;;;;13.67;10.73;;;3.00;77.30;;;;;;5034104;28;20181;-85
2022/03/06 03:58:19;;;;;;;13.70;10.30;;;3.00;76.80;;;;;;5034870;28;20171;-94
2022/03/06 04:00:46;;;;;;;15.23;9.90;;;2.90;76.40;;;;;;5035183;28;20188;-94
2022/03/06 04:03:13;;;;;;;14.67;10.67;;;2.90;76.00;;;;;;5034968;28;20697;-93
2022/03/06 04:05:38;;;;;;;13.30;9.87;;;2.80;76.00;;;;;;5035102;28;20623;-92
2022/03/06 04:08:04;;;;;;;16.30;11.13;;;2.80;76.30;;;;;;5035313;28;20184;-93
2022/03/06 04:10:30;;;;;;;15.60;10.77;;;2.80;76.10;;;;;;5034990;28;20602;-94
2022/03/06 04:12:56;;;;;;;15.37;10.97;;;2.80;76.10;;;;;;5017376;28;20631;-89
2022/03/06 04:15:22;;;;;;;14.20;10.73;;;2.70;76.10;;;;;;5037405;28;20172;-86
2022/03/06 04:17:47;;;;;;;15.73;11.03;;;2.70;76.40;;;;;;5042411;28;20187;-88
2022/03/06 04:20:13;;;;;;;13.20;10.17;;;2.80;76.40;;;;;;5032061;28;20515;-86
2022/03/06 04:22:39;;;;;;;16.80;11.27;;;2.90;76.00;;;;;;5022546;28;20211;-90
2022/03/06 04:25:05;;;;;;;12.03;9.57;;;2.90;75.90;;;;;;5025733;28;20233;-90
2022/03/06 04:27:31;;;;;;;13.90;10.53;;;3.00;76.20;;;;;;5036440;28;20221;-90
2022/03/06 04:29:57;;;;;;;12.63;9.13;;;3.00;75.90;;;;;;5016890;28;20187;-92
2022/03/06 04:32:23;;;;;;;14.60;11.03;;;3.00;75.60;;;;;;5034205;28;20294;-89
2022/03/06 04:34:49;;;;;;;15.27;10.90;;;2.90;75.40;;;;;;5016558;28;20189;-93
2022/03/06 04:37:15;;;;;;;11.77;9.97;;;2.90;75.80;;;;;;5034282;28;20535;-89
2022/03/06 04:39:41;;;;;;;14.33;10.23;;;2.80;75.70;;;;;;5016842;28;20179;-92
2022/03/06 04:42:07;;;;;;;16.07;10.47;;;2.80;75.80;;;;;;5016601;28;20281;-89
2022/03/06 04:44:33;;;;;;;14.37;10.50;;;2.80;76.00;;;;;;5033767;28;20695;-91
2022/03/06 04:46:58;;;;;;;15.63;10.00;;;2.90;76.10;;;;;;5033832;28;20179;-86
2022/03/06 04:49:24;;;;;;;14.37;10.70;;;3.00;76.30;;;;;;5034289;28;20203;-92
2022/03/06 04:51:50;;;;;;;13.43;10.87;;;3.00;76.20;;;;;;5037226;28;20195;-91
2022/03/06 04:54:16;;;;;;;13.40;10.43;;;2.90;75.50;;;;;;5045201;28;20180;-93
2022/03/06 04:56:42;;;;;;;13.20;10.57;;;2.80;75.90;;;;;;5035001;28;20214;-86
2022/03/06 04:59:07;;;;;;;14.07;11.00;;;2.90;76.00;;;;;;5054552;28;20183;-88
2022/03/06 05:01:33;;;;;;;14.60;10.73;;;2.90;75.80;;;;;;5024422;28;20681;-87
2022/03/06 05:04:01;;;;;;;15.13;11.17;;;2.80;75.50;;;;;;5033528;28;20212;-86
2022/03/06 05:06:27;;;;;;;16.20;10.50;;;2.70;76.50;;;;;;5016525;28;20191;-89
2022/03/06 05:08:53;;;;;;;15.70;11.03;;;2.80;75.90;;;;;;5033767;28;20185;-87
2022/03/06 05:11:19;;;;;;;15.07;11.57;;;2.80;75.30;;;;;;5033647;28;20686;-86
2022/03/06 05:13:45;;;;;;;13.23;10.27;;;2.80;74.90;;;;;;5033761;28;20229;-91
2022/03/06 05:16:10;;;;;;;13.47;10.23;;;2.80;75.40;;;;;;5033818;28;20187;-94
2022/03/06 05:18:36;;;;;;;12.33;10.33;;;2.80;75.40;;;;;;5033331;28;20179;-90
2022/03/06 05:21:03;;;;;;;12.37;9.70;;;2.70;75.20;;;;;;5033925;28;20176;-93
2022/03/06 05:23:28;;;;;;;14.13;10.00;;;2.70;75.50;;;;;;5033548;28;20231;-88
2022/03/06 05:25:54;;;;;;;15.33;10.63;;;2.70;75.40;;;;;;5015807;28;20206;-87
2022/03/06 05:28:21;;;;;;;13.83;10.40;;;2.60;75.70;;;;;;5016301;28;20574;-89
2022/03/06 05:30:47;;;;;;;14.33;10.53;;;2.60;75.80;;;;;;5016178;28;20188;-94
2022/03/06 05:33:13;;;;;;;16.13;11.07;;;2.70;75.40;;;;;;5016402;28;20228;-93
2022/03/06 05:35:38;;;;;;;13.43;10.40;;;2.70;75.30;;;;;;5037243;28;20274;-91
2022/03/06 05:38:04;;;;;;;12.33;10.07;;;2.70;75.30;;;;;;5037887;28;20667;-87
2022/03/06 05:40:30;;;;;;;11.63;9.80;;;2.50;75.30;;;;;;5030374;28;20172;-85
2022/03/06 05:42:56;;;;;;;12.67;9.87;;;2.60;75.40;;;;;;5045343;28;20215;-89
2022/03/06 05:45:22;;;;;;;15.97;11.20;;;2.70;75.40;;;;;;5045196;28;20167;-91
2022/03/06 05:47:47;;;;;;;14.50;10.57;;;2.60;75.40;;;;;;5037405;28;20253;-91
2022/03/06 05:50:13;;;;;;;14.80;11.40;;;2.60;75.60;;;;;;5037387;28;20222;-91
2022/03/06 05:52:42;;;;;;;12.77;10.57;;;2.60;75.20;;;;;;5036794;28;20186;-88
2022/03/06 05:55:09;;;;;;;14.77;10.70;;;2.60;75.40;;;;;;5037489;28;20257;-90
2022/03/06 05:57:35;;;;;;;16.53;10.30;;;2.60;75.50;;;;;;5038180;28;20170;-89
2022/03/06 06:00:01;;;;;;;12.97;10.00;;;2.60;75.10;;;;;;5044083;28;20175;-87
2022/03/06 06:02:26;;;;;;;14.33;10.40;;;2.60;75.30;;;;;;5026111;28;20697;-93
2022/03/06 06:04:52;;;;;;;14.57;10.73;;;2.60;75.40;;;;;;5036909;28;20174;-93
2022/03/06 06:07:18;;;;;;;14.20;10.87;;;2.50;75.70;;;;;;5019415;28;20262;-91
2022/03/06 06:09:43;;;;;;;14.10;10.33;;;2.60;75.80;;;;;;5028359;28;20160;-88
2022/03/06 06:12:10;;;;;;;14.30;10.40;;;2.60;75.70;;;;;;5057783;28;20206;-89
2022/03/06 06:14:36;;;;;;;12.10;10.50;;;2.60;75.50;;;;;;5050623;28;20194;-85
2022/03/06 06:17:01;;;;;;;14.63;11.37;;;2.60;75.60;;;;;;5047255;28;20168;-91
2022/03/06 06:19:27;;;;;;;13.70;10.60;;;2.60;76.00;;;;;;5047515;28;20543;-91
2022/03/06 06:21:53;;;;;;;12.90;10.10;;;2.60;76.20;;;;;;5042374;28;20212;-87
2022/03/06 06:24:19;;;;;;;12.63;9.97;;;2.60;76.30;;;;;;5036647;28;20168;-90
2022/03/06 06:26:49;;;;;;;14.37;11.10;;;2.70;76.00;;;;;;5036281;28;20268;-90
2022/03/06 06:29:15;;;;;;;15.53;11.43;;;2.70;75.90;;;;;;5036208;28;20172;-90
2022/03/06 06:31:41;;;;;;;14.83;10.97;;;2.70;75.90;;;;;;5035983;28;20216;-92
2022/03/06 06:34:07;;;;;;;15.57;11.87;;;2.60;76.30;;;;;;5038737;28;20167;-88
2022/03/06 06:36:33;;;;;;;15.47;11.50;;;2.50;76.60;;;;;;5046169;28;20177;-88
2022/03/06 06:38:58;;;;;;;14.60;11.53;;;2.60;76.40;;;;;;5030311;28;20238;-90
2022/03/06 06:41:24;;;;;;;12.93;10.57;;;2.50;76.30;;;;;;5051302;28;20283;-86
2022/03/06 06:43:50;;;;;;;15.23;11.27;;;2.60;77.00;;;;;;5029532;28;20188;-87
2022/03/06 06:46:16;;;;;;;16.00;11.63;;;2.70;76.70;;;;;;5037153;28;20662;-88
2022/03/06 06:48:42;;;;;;;14.33;11.03;;;2.60;76.70;;;;;;5017855;28;20180;-86
2022/03/06 06:51:08;;;;;;;15.47;11.30;;;2.70;76.50;;;;;;5036321;28;20180;-93
2022/03/06 06:53:36;;;;;;;16.13;11.57;;;2.80;76.40;;;;;;5018665;28;20271;-91
2022/03/06 06:56:02;;;;;;;14.10;11.27;;;2.80;76.40;;;;;;5018146;28;20240;-91
2022/03/06 06:58:27;;;;;;;15.50;11.60;;;2.70;76.70;;;;;;5035770;28;20171;-89
2022/03/06 07:00:53;;;;;;;14.03;10.97;;;2.70;76.50;;;;;;5017928;28;20176;-87
2022/03/06 07:03:19;;;;;;;14.67;11.37;;;2.80;76.80;;;;;;5035930;28;20234;-87
2022/03/06 07:05:47;;;;;;;16.00;12.33;;;2.80;76.30;;;;;;5036629;28;20244;-89
2022/03/06 07:08:13;;;;;;;15.33;11.63;;;2.80;76.50;;;;;;5038299;28;20172;-89
2022/03/06 07:10:38;;;;;;;14.43;11.00;;;2.80;76.50;;;;;;5039596;28;20169;-94
2022/03/06 07:13:04;;;;;;;14.50;11.03;;;2.80;76.80;;;;;;5035734;28;20221;-90
2022/03/06 07:15:32;;;;;;;14.20;11.60;;;2.80;77.00;;;;;;5035680;28;20180;-91
2022/03/06 07:17:59;;;;;;;16.63;11.03;;;2.80;76.90;;;;;;5035338;28;20179;-86
2022/03/06 07:20:25;;;;;;;14.77;11.73;;;2.80;77.40;;;;;;5019665;28;20176;-91
2022/03/06 07:22:51;;;;;;;15.73;11.60;;;2.80;77.30;;;;;;5036013;28;20210;-90
2022/03/06 07:25:17;;;;;;;15.40;12.00;;;2.90;77.50;;;;;;5036121;28;20183;-92
2022/03/06 07:27:43;;;;;;;15.83;12.33;;;3.00;76.30;;;;;;5037741;28;20250;-90
2022/03/06 07:30:10;;;;;;;16.80;12.27;;;3.10;76.40;;;;;;5039009;28;20646;-85
2022/03/06 07:32:47;;;;;;;15.67;11.63;;;3.10;76.20;;;;;;5034648;28;20254;-90
2022/03/06 07:35:13;;;;;;;15.03;11.70;;;3.10;76.20;;;;;;5034956;28;20603;-91
2022/03/06 07:37:40;;;;;;;14.00;11.60;;;3.20;76.20;;;;;;5035157;28;20169;-91
2022/03/06 07:40:07;;;;;;;16.30;12.27;;;3.20;76.00;;;;;;5035219;28;20251;-87
2022/03/06 07:42:33;;;;;;;14.80;11.33;;;3.40;76.00;;;;;;5020829;28;20203;-89
2022/03/06 07:44:59;;;;;;;18.27;12.63;;;3.40;76.00;;;;;;5039720;28;20172;-86
2022/03/06 07:47:25;;;;;;;16.57;12.03;;;3.50;76.50;;;;;;5037261;28;20661;-87
2022/03/06 07:49:50;;;;;;;15.27;12.13;;;3.60;75.90;;;;;;5016991;28;20685;-91
2022/03/06 07:52:16;;;;;;;15.00;12.13;;;3.70;76.10;;;;;;5016992;28;20309;-89
2022/03/06 07:54:42;;;;;;;15.97;11.57;;;3.80;75.50;;;;;;5034781;28;20173;-88
2022/03/06 07:57:08;;;;;;;17.07;12.33;;;3.90;75.60;;;;;;5016832;28;20207;-91
2022/03/06 07:59:35;;;;;;;19.10;13.10;;;4.00;74.90;;;;;;5034015;28;20618;-91
2022/03/06 08:02:01;;;;;;;16.70;12.93;;;4.00;75.00;;;;;;5034429;28;20290;-87
2022/03/06 08:04:27;;;;;;;16.43;12.20;;;4.00;75.00;;;;;;5033831;28;20262;-87
2022/03/06 08:06:53;;;;;;;15.37;12.13;;;3.90;74.60;;;;;;5033612;28;20594;-86
2022/03/06 08:09:19;;;;;;;14.50;11.60;;;3.80;74.30;;;;;;5033699;28;20207;-86
2022/03/06 08:11:45;;;;;;;14.10;11.23;;;3.80;74.60;;;;;;5015769;28;20195;-85
2022/03/06 08:14:11;;;;;;;15.73;11.10;;;3.90;75.60;;;;;;5016548;28;20183;-90
2022/03/06 08:16:37;;;;;;;14.83;12.07;;;3.80;74.20;;;;;;5017709;28;20208;-89
2022/03/06 08:19:05;;;;;;;14.93;12.37;;;3.80;74.20;;;;;;5018507;28;20212;-89
2022/03/06 08:21:31;;;;;;;17.53;12.20;;;3.70;74.80;;;;;;5045834;28;20196;-87
2022/03/06 08:23:57;;;;;;;15.07;12.00;;;3.70;74.60;;;;;;5033485;28;20173;-89
2022/03/06 08:26:23;;;;;;;16.20;12.27;;;3.50;74.70;;;;;;5033240;28;20262;-88
2022/03/06 08:28:50;;;;;;;15.07;12.33;;;3.40;74.70;;;;;;5053113;28;20196;-89
2022/03/06 08:31:16;;;;;;;15.17;11.83;;;3.40;75.50;;;;;;5043365;28;20203;-88
2022/03/06 08:33:42;;;;;;;15.77;11.50;;;3.50;75.70;;;;;;5035433;28;20230;-92
2022/03/06 08:36:07;;;;;;;13.83;11.20;;;3.60;75.70;;;;;;5016654;28;20635;-88
2022/03/06 08:38:33;;;;;;;14.23;11.63;;;3.60;75.30;;;;;;5016026;28;20198;-92
2022/03/06 08:40:59;;;;;;;14.57;11.93;;;3.80;74.80;;;;;;5034251;28;20187;-92
2022/03/06 08:43:25;;;;;;;14.40;11.83;;;3.80;74.60;;;;;;5035547;28;20212;-90
2022/03/06 08:45:51;;;;;;;14.43;11.40;;;3.90;74.30;;;;;;5033993;28;20174;-87
2022/03/06 08:48:17;;;;;;;15.67;11.60;;;3.80;74.10;;;;;;5034087;28;20180;-90
2022/03/06 08:50:43;;;;;;;15.73;12.07;;;3.70;74.10;;;;;;5033743;28;20248;-91
2022/03/06 08:53:09;;;;;;;13.97;11.27;;;3.60;74.70;;;;;;5016136;28;20271;-93
2022/03/06 08:55:34;;;;;;;18.13;13.07;;;3.80;74.50;;;;;;5034183;28;20653;-89
2022/03/06 08:58:00;;;;;;;17.10;12.27;;;3.80;74.00;;;;;;5034395;28;20184;-88
2022/03/06 09:00:26;;;;;;;14.80;11.87;;;3.90;73.60;;;;;;5034478;28;20178;-88
2022/03/06 09:02:52;;;;;;;14.97;11.57;;;3.90;73.90;;;;;;5016285;28;20216;-89
2022/03/06 09:05:20;;;;;;;16.87;12.17;;;4.00;73.60;;;;;;5033443;28;20693;-92
2022/03/06 09:07:47;;;;;;;17.93;12.17;;;4.10;74.40;;;;;;5034469;28;20180;-89
2022/03/06 09:10:13;;;;;;;16.23;12.53;;;4.30;73.60;;;;;;5018343;28;20167;-90
2022/03/06 09:12:39;;;;;;;15.87;12.60;;;4.50;74.00;;;;;;5037886;28;20187;-93
2022/03/06 09:15:09;;;;;;;14.13;12.17;;;4.70;73.40;;;;;;5037297;28;20197;-88
2022/03/06 09:17:35;;;;;;;14.07;11.77;;;4.90;73.20;;;;;;5037227;28;20183;-86
2022/03/06 09:20:05;;;;;;;15.57;12.97;;;4.90;73.30;;;;;;5037213;28;20176;-86
2022/03/06 09:22:32;;;;;;;14.30;11.97;;;5.00;73.00;;;;;;5019943;28;20257;-86
2022/03/06 09:24:58;;;;;;;15.23;12.43;;;5.20;72.50;;;;;;5020209;28;20180;-85
2022/03/06 09:27:23;;;;;;;16.80;12.17;;;5.30;72.10;;;;;;5037996;28;20259;-86
2022/03/06 09:29:49;;;;;;;15.60;12.07;;;5.30;73.10;;;;;;5038934;28;20247;-85
2022/03/06 09:32:15;;;;;;;16.00;12.87;;;5.50;72.20;;;;;;5020756;28;20222;-88
2022/03/06 09:34:47;;;;;;;13.67;11.73;;;5.60;71.50;;;;;;5020241;28;20182;-85
2022/03/06 09:37:14;;;;;;;16.53;12.60;;;5.70;70.60;;;;;;5038022;28;20172;-85
2022/03/06 09:39:40;;;;;;;15.63;12.73;;;5.70;70.40;;;;;;5038518;28;20233;-87
2022/03/06 09:42:06;;;;;;;16.10;12.70;;;5.70;70.90;;;;;;5020001;28;20278;-86
2022/03/06 09:44:34;;;;;;;16.93;13.27;;;5.80;71.70;;;;;;5019635;28;20189;-90
2022/03/06 09:47:00;;;;;;;15.60;12.47;;;5.90;70.80;;;;;;5038163;28;20263;-91
2022/03/06 09:49:26;;;;;;;15.10;12.77;;;6.00;70.10;;;;;;5037592;28;20202;-86
2022/03/06 09:51:52;;;;;;;14.80;11.80;;;6.10;71.00;;;;;;5026981;28;20184;-93
2022/03/06 09:54:18;;;;;;;13.70;11.67;;;6.20;71.70;;;;;;5040947;28;20168;-93
2022/03/06 09:56:44;;;;;;;13.47;11.80;;;6.10;71.00;;;;;;5022397;28;20187;-92
2022/03/06 09:59:12;;;;;;;13.30;11.73;;;6.30;70.30;;;;;;5038125;28;20174;-92
2022/03/06 10:01:38;;;;;;;14.37;11.63;;;6.40;71.30;;;;;;5037177;28;20208;-89
2022/03/06 10:04:25;;;;;;;14.57;11.97;;;6.30;70.10;;;;;;5019292;28;20215;-90
2022/03/06 10:07:04;;;;;;;12.23;10.93;;;6.30;70.80;;;;;;5037388;28;20160;-87
2022/03/06 10:09:54;;;;;;;14.83;11.97;;;6.30;72.10;;;;;;5034079;28;20179;-87
2022/03/06 10:12:47;;;;;;;13.63;11.20;;;6.40;70.20;;;;;;5052684;28;20176;-86
2022/03/06 10:15:16;;;;;;;13.27;11.40;;;6.40;69.60;;;;;;5043467;28;20655;-88
2022/03/06 10:17:42;;;;;;;13.90;11.20;;;6.40;69.50;;;;;;5038911;28;20169;-93
2022/03/06 10:20:09;;;;;;;15.30;11.93;;;6.60;70.10;;;;;;5037329;28;20169;-90
2022/03/06 10:22:40;;;;;;;15.93;12.40;;;6.70;68.60;;;;;;5039204;28;20536;-93
2022/03/06 10:25:08;;;;;;;14.43;11.77;;;6.70;67.60;;;;;;5018563;28;20212;-93
2022/03/06 10:27:57;;;;;;;13.70;11.63;;;6.70;68.10;;;;;;5018745;28;20187;-90
2022/03/06 10:30:35;;;;;;;15.20;13.10;;;6.80;67.50;;;;;;5018958;28;20264;-93
2022/03/06 10:33:10;;;;;;;15.90;12.27;;;6.80;67.80;;;;;;5035881;28;20223;-93
2022/03/06 10:35:41;;;;;;;13.87;11.30;;;6.70;67.10;;;;;;5036304;28;20167;-92
2022/03/06 10:38:27;;;;;;;13.20;11.13;;;6.70;66.80;;;;;;5039358;28;20524;-91
2022/03/06 10:40:54;;;;;;;15.70;11.87;;;6.60;66.70;;;;;;5020575;28;20260;-90
2022/03/06 10:43:26;;;;;;;15.80;12.47;;;6.60;67.00;;;;;;5022544;28;20221;-92
2022/03/06 10:46:18;;;;;;;14.60;11.70;;;6.40;67.00;;;;;;5017732;28;20203;-90
2022/03/06 10:49:08;;;;;;;19.73;12.17;;;6.20;67.30;;;;;;5017456;28;20179;-91
2022/03/06 10:51:49;;;;;;;14.30;11.73;;;6.00;67.90;;;;;;5017356;28;20177;-88
2022/03/06 10:54:16;;;;;;;14.97;11.50;;;6.10;67.20;;;;;;5017209;28;20263;-90
2022/03/06 10:56:43;;;;;;;13.40;11.53;;;6.10;67.00;;;;;;5036006;28;20167;-87
2022/03/06 10:59:10;;;;;;;14.40;11.50;;;6.10;67.60;;;;;;5035456;28;20270;-87
2022/03/06 11:01:38;;;;;;;14.13;11.37;;;6.10;69.20;;;;;;5038706;28;20295;-87
2022/03/06 11:04:06;;;;;;;13.77;11.50;;;6.30;67.20;;;;;;5048812;28;20180;-86
2022/03/06 11:06:40;;;;;;;14.17;11.50;;;6.50;72.10;;;;;;5040804;28;20648;-90
2022/03/06 11:09:11;;;;;;;14.37;11.17;;;6.80;67.30;;;;;;5019492;28;20607;-92
2022/03/06 11:11:41;;;;;;;13.47;11.40;;;6.80;65.10;;;;;;5024494;28;20675;-87
2022/03/06 11:14:07;;;;;;;14.67;11.30;;;6.80;65.10;;;;;;5045832;28;20181;-88
2022/03/06 11:16:35;;;;;;;15.73;12.07;;;6.90;67.60;;;;;;5027759;28;20215;-89
2022/03/06 11:19:01;;;;;;;14.40;11.43;;;7.00;66.20;;;;;;5036901;28;20251;-91
2022/03/06 11:21:28;;;;;;;12.33;10.50;;;7.00;65.60;;;;;;5038612;28;20206;-88
2022/03/06 11:23:56;;;;;;;12.97;10.63;;;7.10;68.60;;;;;;5037802;28;20192;-87
2022/03/06 11:26:34;;;;;;;14.03;11.03;;;7.00;68.50;;;;;;5054312;28;20511;-87
2022/03/06 11:29:22;;;;;;;14.20;11.40;;;6.90;68.70;;;;;;5056256;28;20172;-92
2022/03/06 11:31:51;;;;;;;12.87;10.67;;;6.80;65.80;;;;;;5045493;28;20307;-91
2022/03/06 11:34:34;;;;;;;13.40;11.13;;;6.60;67.50;;;;;;5039107;28;20254;-92
2022/03/06 11:37:15;;;;;;;13.90;11.57;;;6.50;67.20;;;;;;5037425;28;20263;-89
2022/03/06 11:39:40;;;;;;;13.13;11.03;;;6.40;66.00;;;;;;5035978;28;20158;-91
2022/03/06 11:42:09;;;;;;;14.00;10.97;;;6.30;65.90;;;;;;5035814;28;20310;-93
2022/03/06 11:44:36;;;;;;;13.90;11.73;;;6.20;68.00;;;;;;5035542;28;20177;-91
2022/03/06 11:47:18;;;;;;;13.13;11.63;;;6.10;67.30;;;;;;5035435;28;20168;-92
2022/03/06 11:49:55;;;;;;;13.13;10.97;;;6.20;69.10;;;;;;5036112;28;20252;-94
2022/03/06 11:52:29;;;;;;;12.17;10.87;;;6.20;68.10;;;;;;5019043;28;20173;-91
2022/03/06 11:54:56;;;;;;;13.27;10.57;;;6.00;68.10;;;;;;5029001;28;20199;-91
2022/03/06 11:57:44;;;;;;;11.93;10.30;;;6.00;67.10;;;;;;5048169;28;20215;-91
2022/03/06 12:00:23;;;;;;;13.20;10.73;;;5.90;68.60;;;;;;5050316;28;20173;-91
2022/03/06 12:02:57;;;;;;;13.90;10.20;;;6.00;68.60;;;;;;5023485;28;20239;-93
2022/03/06 12:05:52;;;;;;;12.27;10.47;;;6.00;66.40;;;;;;5019656;28;20186;-92
2022/03/06 12:08:24;;;;;;;12.63;11.13;;;6.10;68.20;;;;;;5019401;28;20176;-93
2022/03/06 12:10:52;;;;;;;14.40;10.87;;;6.00;67.70;;;;;;5006963;28;20170;-89
2022/03/06 12:13:19;;;;;;;12.17;10.13;;;6.10;69.00;;;;;;5016982;28;20248;-90
2022/03/06 12:16:04;;;;;;;12.00;10.37;;;6.10;68.50;;;;;;4999097;28;20726;-93
2022/03/06 12:18:30;;;;;;;11.53;10.03;;;6.20;67.40;;;;;;4997817;28;20177;-94
2022/03/06 12:20:56;;;;;;;12.37;10.30;;;6.20;68.90;;;;;;5016294;28;20191;-89
2022/03/06 12:23:25;;;;;;;12.57;10.33;;;6.30;68.00;;;;;;5018104;28;20199;-92
2022/03/06 12:25:55;;;;;;;13.13;10.83;;;6.40;67.80;;;;;;4998143;28;20188;-95
2022/03/06 12:28:24;;;;;;;13.27;10.23;;;6.50;68.40;;;;;;4999825;28;20181;-95
2022/03/06 12:30:50;;;;;;;14.27;11.20;;;6.50;66.30;;;;;;5016676;28;20166;-94
2022/03/06 12:33:25;;;;;;;14.50;10.93;;;6.60;67.80;;;;;;5016259;28;20222;-93
2022/03/06 12:36:06;;;;;;;11.53;10.23;;;6.70;66.00;;;;;;5023099;28;20169;-94
2022/03/06 12:38:33;;;;;;;13.27;10.80;;;6.80;67.40;;;;;;5002105;28;20169;-93
2022/03/06 12:40:59;;;;;;;13.33;10.50;;;6.90;65.30;;;;;;5003850;28;20184;-91